Terminal Aerodrome Forecast
Issued by NWS Wichita, KS

Home | Current Version | Previous Version | Text Only | Print | Product List | Glossary Off
Versions: 1 2 3 4 5 6 7 8 9 10 11 12

000
FTUS43 KICT 271700
TAFICT
TAF
KICT 271725Z 2718/2818 01011KT P6SM VCSH FEW025 BKN090
      TEMPO 2718/2721 6SM SHRA SCT025 OVC080
     FM280100 02007KT P6SM SCT200=

USA.gov is the U.S. government's official web portal to all federal, state and local government web resources and services.